sensor_id;sensor_type;location;lat;lon;timestamp;P1;durP1;ratioP1;P2;durP2;ratioP2
48629;SDS011;34426;52.180;4.462;2023-02-15T00:02:10;96.32;;;64.18;;
48629;SDS011;34426;52.180;4.462;2023-02-15T00:04:36;100.50;;;67.18;;
48629;SDS011;34426;52.180;4.462;2023-02-15T00:07:01;101.40;;;65.30;;
48629;SDS011;34426;52.180;4.462;2023-02-15T00:09:28;108.60;;;69.53;;
48629;SDS011;34426;52.180;4.462;2023-02-15T00:11:53;106.65;;;69.18;;
48629;SDS011;34426;52.180;4.462;2023-02-15T00:14:20;101.40;;;66.53;;
48629;SDS011;34426;52.180;4.462;2023-02-15T00:16:48;105.05;;;71.95;;
48629;SDS011;34426;52.180;4.462;2023-02-15T00:19:15;107.40;;;69.05;;
48629;SDS011;34426;52.180;4.462;2023-02-15T00:21:42;108.45;;;70.28;;
48629;SDS011;34426;52.180;4.462;2023-02-15T00:24:08;107.32;;;68.55;;
48629;SDS011;34426;52.180;4.462;2023-02-15T00:26:37;109.18;;;69.28;;
48629;SDS011;34426;52.180;4.462;2023-02-15T00:29:02;107.43;;;68.53;;
48629;SDS011;34426;52.180;4.462;2023-02-15T00:31:30;111.78;;;71.55;;
48629;SDS011;34426;52.180;4.462;2023-02-15T00:34:00;119.82;;;70.60;;
48629;SDS011;34426;52.180;4.462;2023-02-15T00:36:26;104.30;;;70.05;;
48629;SDS011;34426;52.180;4.462;2023-02-15T00:38:52;102.57;;;68.47;;
48629;SDS011;34426;52.180;4.462;2023-02-15T00:41:17;111.80;;;69.28;;
48629;SDS011;34426;52.180;4.462;2023-02-15T00:43:44;112.72;;;72.40;;
48629;SDS011;34426;52.180;4.462;2023-02-15T00:46:09;114.47;;;70.85;;
48629;SDS011;34426;52.180;4.462;2023-02-15T00:48:35;115.22;;;73.28;;
48629;SDS011;34426;52.180;4.462;2023-02-15T00:51:00;128.60;;;78.63;;
48629;SDS011;34426;52.180;4.462;2023-02-15T00:53:26;131.27;;;77.82;;
48629;SDS011;34426;52.180;4.462;2023-02-15T00:55:53;110.15;;;70.70;;
48629;SDS011;34426;52.180;4.462;2023-02-15T00:58:18;112.97;;;71.13;;
48629;SDS011;34426;52.180;4.462;2023-02-15T01:00:46;109.85;;;70.85;;
48629;SDS011;34426;52.180;4.462;2023-02-15T01:03:12;100.30;;;66.20;;
48629;SDS011;34426;52.180;4.462;2023-02-15T01:05:39;98.20;;;64.50;;
48629;SDS011;34426;52.180;4.462;2023-02-15T01:08:04;93.28;;;61.78;;
48629;SDS011;34426;52.180;4.462;2023-02-15T01:10:30;98.55;;;63.70;;
48629;SDS011;34426;52.180;4.462;2023-02-15T01:12:56;97.93;;;65.28;;
48629;SDS011;34426;52.180;4.462;2023-02-15T01:15:22;103.50;;;65.80;;
48629;SDS011;34426;52.180;4.462;2023-02-15T01:17:49;103.72;;;66.10;;
48629;SDS011;34426;52.180;4.462;2023-02-15T01:20:15;97.65;;;65.00;;
48629;SDS011;34426;52.180;4.462;2023-02-15T01:22:40;102.80;;;65.22;;
48629;SDS011;34426;52.180;4.462;2023-02-15T01:25:06;95.85;;;66.10;;
48629;SDS011;34426;52.180;4.462;2023-02-15T01:27:31;104.57;;;68.10;;
48629;SDS011;34426;52.180;4.462;2023-02-15T01:29:57;103.63;;;66.07;;
48629;SDS011;34426;52.180;4.462;2023-02-15T01:32:22;102.20;;;66.30;;
48629;SDS011;34426;52.180;4.462;2023-02-15T01:34:49;102.10;;;65.45;;
48629;SDS011;34426;52.180;4.462;2023-02-15T01:37:15;107.65;;;68.35;;
48629;SDS011;34426;52.180;4.462;2023-02-15T01:39:40;103.13;;;64.63;;
48629;SDS011;34426;52.180;4.462;2023-02-15T01:42:07;99.22;;;63.90;;
48629;SDS011;34426;52.180;4.462;2023-02-15T01:44:48;101.20;;;63.70;;
48629;SDS011;34426;52.180;4.462;2023-02-15T01:47:16;99.88;;;63.80;;
48629;SDS011;34426;52.180;4.462;2023-02-15T01:49:46;99.38;;;63.42;;
48629;SDS011;34426;52.180;4.462;2023-02-15T01:52:14;99.35;;;66.28;;
48629;SDS011;34426;52.180;4.462;2023-02-15T01:54:42;97.95;;;61.85;;
48629;SDS011;34426;52.180;4.462;2023-02-15T01:57:12;99.30;;;65.13;;
48629;SDS011;34426;52.180;4.462;2023-02-15T01:59:41;91.85;;;60.72;;
48629;SDS011;34426;52.180;4.462;2023-02-15T02:02:11;96.70;;;62.55;;
48629;SDS011;34426;52.180;4.462;2023-02-15T02:04:40;96.65;;;63.25;;
48629;SDS011;34426;52.180;4.462;2023-02-15T02:07:11;93.18;;;60.80;;
48629;SDS011;34426;52.180;4.462;2023-02-15T02:09:39;87.78;;;60.38;;
48629;SDS011;34426;52.180;4.462;2023-02-15T02:12:05;89.95;;;57.28;;
48629;SDS011;34426;52.180;4.462;2023-02-15T02:14:32;91.13;;;61.20;;
48629;SDS011;34426;52.180;4.462;2023-02-15T02:16:58;89.07;;;57.05;;
48629;SDS011;34426;52.180;4.462;2023-02-15T02:19:39;86.28;;;56.88;;
48629;SDS011;34426;52.180;4.462;2023-02-15T02:25:39;83.75;;;54.05;;
48629;SDS011;34426;52.180;4.462;2023-02-15T02:28:28;93.03;;;56.08;;
48629;SDS011;34426;52.180;4.462;2023-02-15T02:31:16;87.50;;;56.25;;
48629;SDS011;34426;52.180;4.462;2023-02-15T02:34:04;80.15;;;53.85;;
48629;SDS011;34426;52.180;4.462;2023-02-15T02:36:35;85.88;;;55.58;;
48629;SDS011;34426;52.180;4.462;2023-02-15T02:39:09;85.00;;;56.00;;
48629;SDS011;34426;52.180;4.462;2023-02-15T02:41:44;80.65;;;53.63;;
48629;SDS011;34426;52.180;4.462;2023-02-15T02:44:22;76.63;;;52.28;;
48629;SDS011;34426;52.180;4.462;2023-02-15T02:46:51;83.20;;;53.80;;
48629;SDS011;34426;52.180;4.462;2023-02-15T02:49:29;88.68;;;54.72;;
48629;SDS011;34426;52.180;4.462;2023-02-15T02:51:57;81.15;;;52.70;;
48629;SDS011;34426;52.180;4.462;2023-02-15T02:54:23;79.15;;;52.30;;
48629;SDS011;34426;52.180;4.462;2023-02-15T02:56:49;82.32;;;53.42;;
48629;SDS011;34426;52.180;4.462;2023-02-15T02:59:17;85.55;;;55.85;;
48629;SDS011;34426;52.180;4.462;2023-02-15T03:01:46;79.03;;;53.92;;
48629;SDS011;34426;52.180;4.462;2023-02-15T03:04:17;82.60;;;54.33;;
48629;SDS011;34426;52.180;4.462;2023-02-15T03:06:48;81.68;;;54.55;;
48629;SDS011;34426;52.180;4.462;2023-02-15T03:09:18;83.43;;;53.58;;
48629;SDS011;34426;52.180;4.462;2023-02-15T03:11:50;80.40;;;54.03;;
48629;SDS011;34426;52.180;4.462;2023-02-15T03:14:16;85.32;;;53.97;;
48629;SDS011;34426;52.180;4.462;2023-02-15T03:16:44;81.25;;;50.45;;
48629;SDS011;34426;52.180;4.462;2023-02-15T03:19:13;78.15;;;51.50;;
48629;SDS011;34426;52.180;4.462;2023-02-15T03:21:42;75.68;;;50.30;;
48629;SDS011;34426;52.180;4.462;2023-02-15T03:24:12;82.20;;;51.50;;
48629;SDS011;34426;52.180;4.462;2023-02-15T03:26:42;80.32;;;50.28;;
48629;SDS011;34426;52.180;4.462;2023-02-15T03:29:10;83.53;;;52.05;;
48629;SDS011;34426;52.180;4.462;2023-02-15T03:31:38;73.55;;;50.60;;
48629;SDS011;34426;52.180;4.462;2023-02-15T03:34:07;77.07;;;53.42;;
48629;SDS011;34426;52.180;4.462;2023-02-15T03:36:38;78.47;;;51.65;;
48629;SDS011;34426;52.180;4.462;2023-02-15T03:39:10;80.65;;;51.10;;
48629;SDS011;34426;52.180;4.462;2023-02-15T03:41:44;77.78;;;51.97;;
48629;SDS011;34426;52.180;4.462;2023-02-15T03:44:14;78.45;;;51.42;;
48629;SDS011;34426;52.180;4.462;2023-02-15T03:46:45;77.05;;;49.65;;
48629;SDS011;34426;52.180;4.462;2023-02-15T03:49:14;76.18;;;50.90;;
48629;SDS011;34426;52.180;4.462;2023-02-15T03:51:46;78.40;;;50.97;;
48629;SDS011;34426;52.180;4.462;2023-02-15T03:54:17;78.85;;;50.83;;
48629;SDS011;34426;52.180;4.462;2023-02-15T03:56:46;84.65;;;53.05;;
48629;SDS011;34426;52.180;4.462;2023-02-15T03:59:11;75.60;;;49.88;;
48629;SDS011;34426;52.180;4.462;2023-02-15T04:01:38;81.05;;;52.28;;
48629;SDS011;34426;52.180;4.462;2023-02-15T04:04:07;80.82;;;49.78;;
48629;SDS011;34426;52.180;4.462;2023-02-15T04:06:37;77.40;;;50.20;;
48629;SDS011;34426;52.180;4.462;2023-02-15T04:09:02;85.88;;;51.40;;
48629;SDS011;34426;52.180;4.462;2023-02-15T04:11:29;76.75;;;49.10;;
48629;SDS011;34426;52.180;4.462;2023-02-15T04:13:55;77.60;;;48.80;;
48629;SDS011;34426;52.180;4.462;2023-02-15T04:16:20;76.93;;;50.15;;
48629;SDS011;34426;52.180;4.462;2023-02-15T04:18:46;78.05;;;50.70;;
48629;SDS011;34426;52.180;4.462;2023-02-15T04:21:11;77.95;;;50.53;;
48629;SDS011;34426;52.180;4.462;2023-02-15T04:23:37;83.47;;;52.50;;
48629;SDS011;34426;52.180;4.462;2023-02-15T04:26:02;72.55;;;48.78;;
48629;SDS011;34426;52.180;4.462;2023-02-15T04:28:29;75.90;;;48.90;;
48629;SDS011;34426;52.180;4.462;2023-02-15T04:30:55;79.30;;;50.83;;
48629;SDS011;34426;52.180;4.462;2023-02-15T04:33:20;78.13;;;48.22;;
48629;SDS011;34426;52.180;4.462;2023-02-15T04:35:46;80.50;;;49.58;;
48629;SDS011;34426;52.180;4.462;2023-02-15T04:38:11;77.13;;;49.03;;
48629;SDS011;34426;52.180;4.462;2023-02-15T04:40:37;80.50;;;51.22;;
48629;SDS011;34426;52.180;4.462;2023-02-15T04:43:02;78.43;;;49.22;;
48629;SDS011;34426;52.180;4.462;2023-02-15T04:45:29;77.38;;;50.42;;
48629;SDS011;34426;52.180;4.462;2023-02-15T04:47:54;72.00;;;48.97;;
48629;SDS011;34426;52.180;4.462;2023-02-15T04:50:20;79.35;;;49.22;;
48629;SDS011;34426;52.180;4.462;2023-02-15T04:52:45;72.93;;;47.20;;
48629;SDS011;34426;52.180;4.462;2023-02-15T04:55:11;84.43;;;52.80;;
48629;SDS011;34426;52.180;4.462;2023-02-15T04:57:36;86.30;;;53.00;;
48629;SDS011;34426;52.180;4.462;2023-02-15T05:00:02;87.07;;;52.15;;
48629;SDS011;34426;52.180;4.462;2023-02-15T05:02:29;81.50;;;49.83;;
48629;SDS011;34426;52.180;4.462;2023-02-15T05:04:54;99.40;;;55.60;;
48629;SDS011;34426;52.180;4.462;2023-02-15T05:07:20;94.55;;;55.00;;
48629;SDS011;34426;52.180;4.462;2023-02-15T05:09:45;92.53;;;54.97;;
48629;SDS011;34426;52.180;4.462;2023-02-15T05:12:11;97.55;;;54.22;;
48629;SDS011;34426;52.180;4.462;2023-02-15T05:14:36;87.00;;;55.83;;
48629;SDS011;34426;52.180;4.462;2023-02-15T05:17:02;101.75;;;55.75;;
48629;SDS011;34426;52.180;4.462;2023-02-15T05:19:29;91.28;;;55.58;;
48629;SDS011;34426;52.180;4.462;2023-02-15T05:21:54;92.40;;;54.00;;
48629;SDS011;34426;52.180;4.462;2023-02-15T05:24:20;88.05;;;54.90;;
48629;SDS011;34426;52.180;4.462;2023-02-15T05:26:46;89.47;;;52.78;;
48629;SDS011;34426;52.180;4.462;2023-02-15T05:29:11;97.22;;;54.60;;
48629;SDS011;34426;52.180;4.462;2023-02-15T05:31:36;90.72;;;53.85;;
48629;SDS011;34426;52.180;4.462;2023-02-15T05:34:02;89.80;;;52.30;;
48629;SDS011;34426;52.180;4.462;2023-02-15T05:36:29;84.95;;;50.05;;
48629;SDS011;34426;52.180;4.462;2023-02-15T05:38:54;94.53;;;52.03;;
48629;SDS011;34426;52.180;4.462;2023-02-15T05:41:20;88.15;;;54.25;;
48629;SDS011;34426;52.180;4.462;2023-02-15T05:43:46;82.35;;;51.28;;
48629;SDS011;34426;52.180;4.462;2023-02-15T05:46:11;89.28;;;53.40;;
48629;SDS011;34426;52.180;4.462;2023-02-15T05:48:37;95.25;;;56.65;;
48629;SDS011;34426;52.180;4.462;2023-02-15T05:51:03;95.15;;;55.50;;
48629;SDS011;34426;52.180;4.462;2023-02-15T05:53:32;93.13;;;55.40;;
48629;SDS011;34426;52.180;4.462;2023-02-15T05:55:59;100.10;;;54.33;;
48629;SDS011;34426;52.180;4.462;2023-02-15T05:58:25;99.20;;;57.58;;
48629;SDS011;34426;52.180;4.462;2023-02-15T06:00:51;97.97;;;54.67;;
48629;SDS011;34426;52.180;4.462;2023-02-15T06:03:16;104.60;;;57.67;;
48629;SDS011;34426;52.180;4.462;2023-02-15T06:05:42;98.25;;;58.60;;
48629;SDS011;34426;52.180;4.462;2023-02-15T06:08:07;98.78;;;57.22;;
48629;SDS011;34426;52.180;4.462;2023-02-15T06:10:34;95.80;;;54.65;;
48629;SDS011;34426;52.180;4.462;2023-02-15T06:12:59;93.50;;;57.28;;
48629;SDS011;34426;52.180;4.462;2023-02-15T06:15:25;99.68;;;59.35;;
48629;SDS011;34426;52.180;4.462;2023-02-15T06:17:50;100.32;;;58.20;;
48629;SDS011;34426;52.180;4.462;2023-02-15T06:20:16;91.78;;;55.17;;
48629;SDS011;34426;52.180;4.462;2023-02-15T06:22:41;98.00;;;56.70;;
48629;SDS011;34426;52.180;4.462;2023-02-15T06:25:07;92.43;;;54.65;;
48629;SDS011;34426;52.180;4.462;2023-02-15T06:27:34;90.60;;;55.08;;
48629;SDS011;34426;52.180;4.462;2023-02-15T06:29:59;94.80;;;54.95;;
48629;SDS011;34426;52.180;4.462;2023-02-15T06:32:25;107.45;;;57.88;;
48629;SDS011;34426;52.180;4.462;2023-02-15T06:34:50;94.85;;;54.65;;
48629;SDS011;34426;52.180;4.462;2023-02-15T06:37:15;98.22;;;55.22;;
48629;SDS011;34426;52.180;4.462;2023-02-15T06:39:41;96.70;;;56.28;;
48629;SDS011;34426;52.180;4.462;2023-02-15T06:42:06;107.57;;;57.42;;
48629;SDS011;34426;52.180;4.462;2023-02-15T06:44:33;92.75;;;55.35;;
48629;SDS011;34426;52.180;4.462;2023-02-15T06:46:59;99.00;;;56.03;;
48629;SDS011;34426;52.180;4.462;2023-02-15T06:49:24;102.63;;;56.33;;
48629;SDS011;34426;52.180;4.462;2023-02-15T06:51:49;99.38;;;56.35;;
48629;SDS011;34426;52.180;4.462;2023-02-15T06:54:15;99.82;;;54.78;;
48629;SDS011;34426;52.180;4.462;2023-02-15T06:56:40;101.70;;;57.45;;
48629;SDS011;34426;52.180;4.462;2023-02-15T06:59:06;98.93;;;55.00;;
48629;SDS011;34426;52.180;4.462;2023-02-15T07:01:33;95.65;;;56.78;;
48629;SDS011;34426;52.180;4.462;2023-02-15T07:03:58;104.38;;;59.35;;
48629;SDS011;34426;52.180;4.462;2023-02-15T07:06:23;107.60;;;57.58;;
48629;SDS011;34426;52.180;4.462;2023-02-15T07:08:49;102.82;;;58.03;;
48629;SDS011;34426;52.180;4.462;2023-02-15T07:11:14;106.00;;;60.60;;
48629;SDS011;34426;52.180;4.462;2023-02-15T07:13:40;106.20;;;59.22;;
48629;SDS011;34426;52.180;4.462;2023-02-15T07:16:05;109.57;;;57.40;;
48629;SDS011;34426;52.180;4.462;2023-02-15T07:20:59;102.40;;;59.53;;
48629;SDS011;34426;52.180;4.462;2023-02-15T07:23:24;114.22;;;60.45;;
48629;SDS011;34426;52.180;4.462;2023-02-15T07:25:55;110.35;;;59.83;;
48629;SDS011;34426;52.180;4.462;2023-02-15T07:28:21;105.40;;;61.03;;
48629;SDS011;34426;52.180;4.462;2023-02-15T07:30:47;107.10;;;60.42;;
48629;SDS011;34426;52.180;4.462;2023-02-15T07:33:12;107.88;;;61.13;;
48629;SDS011;34426;52.180;4.462;2023-02-15T07:35:45;110.88;;;61.75;;
48629;SDS011;34426;52.180;4.462;2023-02-15T07:38:11;108.70;;;60.10;;
48629;SDS011;34426;52.180;4.462;2023-02-15T07:40:37;114.32;;;64.13;;
48629;SDS011;34426;52.180;4.462;2023-02-15T07:43:03;116.60;;;63.55;;
48629;SDS011;34426;52.180;4.462;2023-02-15T07:45:28;113.68;;;62.95;;
48629;SDS011;34426;52.180;4.462;2023-02-15T07:47:54;128.50;;;67.55;;
48629;SDS011;34426;52.180;4.462;2023-02-15T07:50:19;114.72;;;64.53;;
48629;SDS011;34426;52.180;4.462;2023-02-15T07:52:46;117.85;;;64.13;;
48629;SDS011;34426;52.180;4.462;2023-02-15T07:55:11;120.65;;;65.28;;
48629;SDS011;34426;52.180;4.462;2023-02-15T07:57:37;114.03;;;65.28;;
48629;SDS011;34426;52.180;4.462;2023-02-15T08:00:02;115.97;;;65.47;;
48629;SDS011;34426;52.180;4.462;2023-02-15T08:02:28;120.68;;;65.35;;
48629;SDS011;34426;52.180;4.462;2023-02-15T08:04:54;113.50;;;63.80;;
48629;SDS011;34426;52.180;4.462;2023-02-15T08:07:19;118.47;;;64.13;;
48629;SDS011;34426;52.180;4.462;2023-02-15T08:09:46;129.77;;;68.93;;
48629;SDS011;34426;52.180;4.462;2023-02-15T08:12:11;125.30;;;67.32;;
48629;SDS011;34426;52.180;4.462;2023-02-15T08:14:37;114.13;;;62.83;;
48629;SDS011;34426;52.180;4.462;2023-02-15T08:17:02;128.43;;;67.55;;
48629;SDS011;34426;52.180;4.462;2023-02-15T08:19:28;110.00;;;64.95;;
48629;SDS011;34426;52.180;4.462;2023-02-15T08:21:55;117.35;;;66.25;;
48629;SDS011;34426;52.180;4.462;2023-02-15T08:24:23;117.43;;;67.43;;
48629;SDS011;34426;52.180;4.462;2023-02-15T08:26:54;124.80;;;63.72;;
48629;SDS011;34426;52.180;4.462;2023-02-15T08:29:20;108.18;;;62.38;;
48629;SDS011;34426;52.180;4.462;2023-02-15T08:31:47;117.63;;;64.90;;
48629;SDS011;34426;52.180;4.462;2023-02-15T08:34:14;118.38;;;65.38;;
48629;SDS011;34426;52.180;4.462;2023-02-15T08:36:41;124.53;;;68.97;;
48629;SDS011;34426;52.180;4.462;2023-02-15T08:39:07;121.70;;;68.60;;
48629;SDS011;34426;52.180;4.462;2023-02-15T08:41:32;114.45;;;65.63;;
48629;SDS011;34426;52.180;4.462;2023-02-15T08:44:01;113.85;;;65.13;;
48629;SDS011;34426;52.180;4.462;2023-02-15T08:46:29;110.78;;;65.38;;
48629;SDS011;34426;52.180;4.462;2023-02-15T08:48:56;106.60;;;66.13;;
48629;SDS011;34426;52.180;4.462;2023-02-15T08:51:23;111.05;;;67.68;;
48629;SDS011;34426;52.180;4.462;2023-02-15T08:53:50;116.82;;;66.43;;
48629;SDS011;34426;52.180;4.462;2023-02-15T08:56:17;110.38;;;68.88;;
48629;SDS011;34426;52.180;4.462;2023-02-15T08:58:45;122.65;;;71.03;;
48629;SDS011;34426;52.180;4.462;2023-02-15T09:01:13;122.55;;;70.03;;
48629;SDS011;34426;52.180;4.462;2023-02-15T09:03:39;114.75;;;67.55;;
48629;SDS011;34426;52.180;4.462;2023-02-15T09:06:05;113.47;;;68.88;;
48629;SDS011;34426;52.180;4.462;2023-02-15T09:08:31;109.78;;;68.60;;
48629;SDS011;34426;52.180;4.462;2023-02-15T09:11:04;117.93;;;68.60;;
48629;SDS011;34426;52.180;4.462;2023-02-15T09:13:31;115.97;;;66.90;;
48629;SDS011;34426;52.180;4.462;2023-02-15T09:15:58;123.15;;;70.75;;
48629;SDS011;34426;52.180;4.462;2023-02-15T09:18:26;119.78;;;69.78;;
48629;SDS011;34426;52.180;4.462;2023-02-15T09:20:52;110.28;;;70.05;;
48629;SDS011;34426;52.180;4.462;2023-02-15T09:23:17;116.55;;;67.80;;
48629;SDS011;34426;52.180;4.462;2023-02-15T09:25:43;114.88;;;66.88;;
48629;SDS011;34426;52.180;4.462;2023-02-15T09:28:08;116.20;;;69.63;;
48629;SDS011;34426;52.180;4.462;2023-02-15T09:30:34;112.68;;;68.03;;
48629;SDS011;34426;52.180;4.462;2023-02-15T09:33:02;115.82;;;69.57;;
48629;SDS011;34426;52.180;4.462;2023-02-15T09:35:29;106.63;;;64.43;;
48629;SDS011;34426;52.180;4.462;2023-02-15T09:37:54;117.65;;;69.05;;
48629;SDS011;34426;52.180;4.462;2023-02-15T09:40:20;106.95;;;65.28;;
48629;SDS011;34426;52.180;4.462;2023-02-15T09:42:48;104.57;;;61.13;;
48629;SDS011;34426;52.180;4.462;2023-02-15T09:45:29;104.47;;;61.58;;
48629;SDS011;34426;52.180;4.462;2023-02-15T09:48:10;107.03;;;63.95;;
48629;SDS011;34426;52.180;4.462;2023-02-15T09:50:49;103.47;;;65.15;;
48629;SDS011;34426;52.180;4.462;2023-02-15T09:53:27;106.60;;;65.18;;
48629;SDS011;34426;52.180;4.462;2023-02-15T09:56:05;99.57;;;61.75;;
48629;SDS011;34426;52.180;4.462;2023-02-15T09:58:42;108.22;;;64.30;;
48629;SDS011;34426;52.180;4.462;2023-02-15T10:01:17;100.28;;;61.45;;
48629;SDS011;34426;52.180;4.462;2023-02-15T10:03:53;96.10;;;58.95;;
48629;SDS011;34426;52.180;4.462;2023-02-15T10:06:36;92.03;;;59.70;;
48629;SDS011;34426;52.180;4.462;2023-02-15T10:12:01;98.40;;;57.78;;
48629;SDS011;34426;52.180;4.462;2023-02-15T10:14:53;93.40;;;58.38;;
48629;SDS011;34426;52.180;4.462;2023-02-15T10:17:42;90.40;;;57.00;;
48629;SDS011;34426;52.180;4.462;2023-02-15T10:20:21;94.88;;;57.47;;
48629;SDS011;34426;52.180;4.462;2023-02-15T10:23:00;93.05;;;57.15;;
48629;SDS011;34426;52.180;4.462;2023-02-15T10:25:41;83.05;;;52.25;;
48629;SDS011;34426;52.180;4.462;2023-02-15T10:28:13;91.63;;;54.30;;
48629;SDS011;34426;52.180;4.462;2023-02-15T10:30:42;85.00;;;53.90;;
48629;SDS011;34426;52.180;4.462;2023-02-15T10:33:13;86.70;;;54.53;;
48629;SDS011;34426;52.180;4.462;2023-02-15T10:35:48;81.40;;;54.58;;
48629;SDS011;34426;52.180;4.462;2023-02-15T10:38:27;84.75;;;53.70;;
48629;SDS011;34426;52.180;4.462;2023-02-15T10:41:05;89.40;;;55.42;;
48629;SDS011;34426;52.180;4.462;2023-02-15T10:43:46;90.90;;;55.45;;
48629;SDS011;34426;52.180;4.462;2023-02-15T10:46:32;82.07;;;53.15;;
48629;SDS011;34426;52.180;4.462;2023-02-15T10:49:14;88.13;;;54.13;;
48629;SDS011;34426;52.180;4.462;2023-02-15T10:51:54;86.47;;;55.10;;
48629;SDS011;34426;52.180;4.462;2023-02-15T10:54:36;83.55;;;52.67;;
48629;SDS011;34426;52.180;4.462;2023-02-15T10:57:09;82.85;;;52.15;;
48629;SDS011;34426;52.180;4.462;2023-02-15T10:59:55;83.00;;;53.13;;
48629;SDS011;34426;52.180;4.462;2023-02-15T11:02:33;88.25;;;54.72;;
48629;SDS011;34426;52.180;4.462;2023-02-15T11:05:24;94.18;;;55.03;;
48629;SDS011;34426;52.180;4.462;2023-02-15T11:07:57;85.35;;;52.85;;
48629;SDS011;34426;52.180;4.462;2023-02-15T11:10:28;87.82;;;54.47;;
48629;SDS011;34426;52.180;4.462;2023-02-15T11:12:57;81.82;;;50.83;;
48629;SDS011;34426;52.180;4.462;2023-02-15T11:15:30;85.97;;;51.70;;
48629;SDS011;34426;52.180;4.462;2023-02-15T11:18:02;79.15;;;49.63;;
48629;SDS011;34426;52.180;4.462;2023-02-15T11:20:35;81.50;;;49.65;;
48629;SDS011;34426;52.180;4.462;2023-02-15T11:23:08;81.80;;;49.67;;
48629;SDS011;34426;52.180;4.462;2023-02-15T11:25:41;76.75;;;49.78;;
48629;SDS011;34426;52.180;4.462;2023-02-15T11:28:10;77.35;;;49.28;;
48629;SDS011;34426;52.180;4.462;2023-02-15T11:30:44;74.88;;;48.88;;
48629;SDS011;34426;52.180;4.462;2023-02-15T11:33:15;82.43;;;49.70;;
48629;SDS011;34426;52.180;4.462;2023-02-15T11:35:46;71.72;;;46.17;;
48629;SDS011;34426;52.180;4.462;2023-02-15T11:38:16;82.82;;;47.63;;
48629;SDS011;34426;52.180;4.462;2023-02-15T11:40:46;75.95;;;48.00;;
48629;SDS011;34426;52.180;4.462;2023-02-15T11:43:14;76.03;;;48.15;;
48629;SDS011;34426;52.180;4.462;2023-02-15T11:45:46;78.65;;;48.33;;
48629;SDS011;34426;52.180;4.462;2023-02-15T11:48:12;72.97;;;47.05;;
48629;SDS011;34426;52.180;4.462;2023-02-15T11:50:39;71.13;;;45.80;;
48629;SDS011;34426;52.180;4.462;2023-02-15T11:53:07;74.13;;;47.80;;
48629;SDS011;34426;52.180;4.462;2023-02-15T11:55:37;74.28;;;47.55;;
48629;SDS011;34426;52.180;4.462;2023-02-15T11:58:04;86.13;;;48.33;;
48629;SDS011;34426;52.180;4.462;2023-02-15T12:00:40;73.43;;;47.25;;
48629;SDS011;34426;52.180;4.462;2023-02-15T12:03:11;72.47;;;47.20;;
48629;SDS011;34426;52.180;4.462;2023-02-15T12:05:42;71.53;;;46.95;;
48629;SDS011;34426;52.180;4.462;2023-02-15T12:08:12;81.63;;;48.97;;
48629;SDS011;34426;52.180;4.462;2023-02-15T12:10:55;72.32;;;48.22;;
48629;SDS011;34426;52.180;4.462;2023-02-15T12:13:27;83.93;;;48.50;;
48629;SDS011;34426;52.180;4.462;2023-02-15T12:15:53;76.88;;;46.40;;
48629;SDS011;34426;52.180;4.462;2023-02-15T12:18:32;76.47;;;48.47;;
48629;SDS011;34426;52.180;4.462;2023-02-15T12:21:02;73.95;;;48.42;;
48629;SDS011;34426;52.180;4.462;2023-02-15T12:23:30;73.82;;;48.10;;
48629;SDS011;34426;52.180;4.462;2023-02-15T12:25:57;71.60;;;46.75;;
48629;SDS011;34426;52.180;4.462;2023-02-15T12:28:25;82.43;;;47.90;;
48629;SDS011;34426;52.180;4.462;2023-02-15T12:30:56;79.15;;;48.20;;
48629;SDS011;34426;52.180;4.462;2023-02-15T12:33:25;85.80;;;47.22;;
48629;SDS011;34426;52.180;4.462;2023-02-15T12:35:54;61.38;;;44.53;;
48629;SDS011;34426;52.180;4.462;2023-02-15T12:38:23;69.50;;;43.60;;
48629;SDS011;34426;52.180;4.462;2023-02-15T12:40:56;70.82;;;42.55;;
48629;SDS011;34426;52.180;4.462;2023-02-15T12:43:24;66.63;;;43.63;;
48629;SDS011;34426;52.180;4.462;2023-02-15T12:45:52;69.68;;;43.53;;
48629;SDS011;34426;52.180;4.462;2023-02-15T12:48:18;71.93;;;43.33;;
48629;SDS011;34426;52.180;4.462;2023-02-15T12:50:45;71.45;;;42.75;;
48629;SDS011;34426;52.180;4.462;2023-02-15T12:53:15;61.83;;;42.92;;
48629;SDS011;34426;52.180;4.462;2023-02-15T12:55:49;71.65;;;42.60;;
48629;SDS011;34426;52.180;4.462;2023-02-15T12:58:17;69.82;;;42.60;;
48629;SDS011;34426;52.180;4.462;2023-02-15T13:00:44;71.00;;;43.63;;
48629;SDS011;34426;52.180;4.462;2023-02-15T13:03:17;67.93;;;42.75;;
48629;SDS011;34426;52.180;4.462;2023-02-15T13:05:44;68.68;;;43.28;;
48629;SDS011;34426;52.180;4.462;2023-02-15T13:08:14;69.88;;;42.17;;
48629;SDS011;34426;52.180;4.462;2023-02-15T13:10:42;70.72;;;42.42;;
48629;SDS011;34426;52.180;4.462;2023-02-15T13:13:19;65.72;;;39.88;;
48629;SDS011;34426;52.180;4.462;2023-02-15T13:15:48;71.50;;;42.70;;
48629;SDS011;34426;52.180;4.462;2023-02-15T13:18:18;64.95;;;39.58;;
48629;SDS011;34426;52.180;4.462;2023-02-15T13:20:50;65.50;;;42.00;;
48629;SDS011;34426;52.180;4.462;2023-02-15T13:23:21;73.57;;;42.65;;
48629;SDS011;34426;52.180;4.462;2023-02-15T13:25:51;61.95;;;40.88;;
48629;SDS011;34426;52.180;4.462;2023-02-15T13:28:18;70.95;;;41.95;;
48629;SDS011;34426;52.180;4.462;2023-02-15T13:30:47;67.35;;;41.28;;
48629;SDS011;34426;52.180;4.462;2023-02-15T13:33:16;66.60;;;39.28;;
48629;SDS011;34426;52.180;4.462;2023-02-15T13:35:50;61.55;;;39.65;;
48629;SDS011;34426;52.180;4.462;2023-02-15T13:41:12;68.45;;;40.58;;
48629;SDS011;34426;52.180;4.462;2023-02-15T13:43:42;66.35;;;41.00;;
48629;SDS011;34426;52.180;4.462;2023-02-15T13:46:18;65.70;;;41.45;;
48629;SDS011;34426;52.180;4.462;2023-02-15T13:48:59;67.70;;;39.83;;
48629;SDS011;34426;52.180;4.462;2023-02-15T13:51:35;65.70;;;39.88;;
48629;SDS011;34426;52.180;4.462;2023-02-15T13:54:11;66.38;;;40.97;;
48629;SDS011;34426;52.180;4.462;2023-02-15T13:56:56;72.88;;;41.40;;
48629;SDS011;34426;52.180;4.462;2023-02-15T13:59:36;65.28;;;40.47;;
48629;SDS011;34426;52.180;4.462;2023-02-15T14:02:22;62.63;;;40.25;;
48629;SDS011;34426;52.180;4.462;2023-02-15T14:05:09;61.95;;;40.17;;
48629;SDS011;34426;52.180;4.462;2023-02-15T14:07:56;68.55;;;39.33;;
48629;SDS011;34426;52.180;4.462;2023-02-15T14:10:31;61.28;;;39.63;;
48629;SDS011;34426;52.180;4.462;2023-02-15T14:16:00;58.75;;;38.20;;
48629;SDS011;34426;52.180;4.462;2023-02-15T14:18:35;63.28;;;39.47;;
48629;SDS011;34426;52.180;4.462;2023-02-15T14:21:08;67.80;;;39.78;;
48629;SDS011;34426;52.180;4.462;2023-02-15T14:23:43;59.28;;;38.75;;
48629;SDS011;34426;52.180;4.462;2023-02-15T14:26:27;57.58;;;38.13;;
48629;SDS011;34426;52.180;4.462;2023-02-15T14:29:06;60.38;;;38.30;;
48629;SDS011;34426;52.180;4.462;2023-02-15T14:31:41;61.03;;;39.08;;
48629;SDS011;34426;52.180;4.462;2023-02-15T14:34:14;56.88;;;37.60;;
48629;SDS011;34426;52.180;4.462;2023-02-15T14:36:46;63.20;;;38.60;;
48629;SDS011;34426;52.180;4.462;2023-02-15T14:39:16;70.78;;;38.95;;
48629;SDS011;34426;52.180;4.462;2023-02-15T14:41:52;58.88;;;39.10;;
48629;SDS011;34426;52.180;4.462;2023-02-15T14:44:21;55.17;;;36.08;;
48629;SDS011;34426;52.180;4.462;2023-02-15T14:46:56;58.42;;;38.20;;